Mark Zardes

Scout - New York City
11 Mär 2027
Donnerstag
Verarbeitung

Persönlichkeit

Anpassungsfähigkeit (13) Ehrgeiz (13) Kontroverse (12) Loyalität (6) Druck (7) Professionalität (18) Fairness (10) Temperament (5)

Profil

Trainerstil Demokratisch
Lizenz Kontinentale A
Entschlossenheit 10
Menschenführung 7
Motivation 11
Disziplin 11
Arbeitszufriedenheit
50%
Ermüdung
0%
Rolle Scout
Gehalt 103.5K p/W
Vertrag 14.03.2028

Leistung

Verhalten Normal
Trainingseffektivität
19%
Spielerentwicklung
60%
Verletzungsprävention
60%
Taktische Umsetzung
35%

Letzte Ereignisse

Nahm an einer Scouting-Besprechung teil jetzt
Nahm an einer Scouting-Besprechung teil 7T her
Empfahl ein Transferziel 7T her
Nahm an einer Scouting-Besprechung teil 7T her
Nahm an einer Scouting-Besprechung teil 14T her
Empfahl ein Transferziel 14T her
Nahm an einer Scouting-Besprechung teil 14T her
Nahm an einer Scouting-Besprechung teil 21T her

Aktuell beobachtet

110
Spieler Verein Status Fähigkeit Vertrauen Beobachtet Zuletzt beobachtet Letzte Stimme
Adrien Truffert Bournemouth Aktiv 148 / 153 40% 5 12.02.2027 -
Ryan Sessegnon Fulham Aktiv 149 / 148 40% 4 12.02.2027 -
Jacques Ekomié Wrexham Aktiv 131 / 130 40% 1 12.02.2027 -
Dara O'Shea Ipswich Town Aktiv 136 / 133 40% 2 11.02.2027 -
Hamza Choudhury Leicester City Aktiv 126 / 123 40% 1 11.02.2027 -
Aidan Morris Middlesbrough Aktiv 127 / 127 40% 1 11.02.2027 -
Max Bird Birmingham Aktiv 128 / 133 40% 2 10.02.2027 -
Ethan Galbraith Swansea City Aktiv 128 / 134 40% 3 10.02.2027 -
Welington Southampton Aktiv 130 / 131 40% 1 10.02.2027 -
Ronald Swansea City Aktiv 127 / 127 40% 1 10.02.2027 -
Keagan Mothiba SuperSport United Aktiv 117 / 117 40% 1 10.02.2027 -
Jaden Philogene Ipswich Town Aktiv 139 / 135 40% 1 10.02.2027 -
Takehiro Tomiyasu Crystal Palace Aktiv 147 / 148 40% 1 08.02.2027 -
Stephen Eustáquio Swansea City Aktiv 133 / 137 40% 1 07.02.2027 -
Brodie Spencer Oxford United Aktiv 119 / 124 40% 1 06.02.2027 -
Juanlu Bournemouth Aktiv 150 / 145 40% 1 06.02.2027 -
Saša Lukić Ipswich Town Aktiv 146 / 138 40% 2 05.02.2027 -
Óscar Mingueza Crystal Palace Aktiv 147 / 149 40% 3 05.02.2027 -
Antonee Robinson Fulham Aktiv 149 / 152 40% 1 05.02.2027 -
Teden Mengi Luton Town Aktiv 128 / 124 40% 2 02.02.2027 -
Max Johnston Derby County Aktiv 129 / 126 40% 1 02.02.2027 -
Anel Ahmedhodžić Burnley Aktiv 134 / 133 40% 1 02.02.2027 -
Yehor Yarmoliuk Brentford Aktiv 144 / 153 40% 1 02.02.2027 -
Williams Manyama SuperSport United Aktiv 121 / 117 40% 5 01.02.2027 -
Kristoffer Lund Birmingham Aktiv 129 / 124 40% 1 01.02.2027 -
Noah Sadiki Sunderland Aktiv 140 / 147 40% 1 01.02.2027 -
Quinten Timber Crystal Palace Aktiv 155 / 147 40% 3 28.01.2027 -
Florentino Luís Ipswich Town Aktiv 145 / 139 40% 1 28.01.2027 -
Luke McNally Bristol City Aktiv 129 / 130 40% 1 27.01.2027 -
Nicolás Fernández Mercau Shakhtar Aktiv 141 / 130 40% 8 26.01.2027 -
James Morris Leyton Orient Aktiv 118 / 113 40% 1 26.01.2027 -
Rico Lewis Manchester City Aktiv 151 / 152 40% 1 24.01.2027 -
Japhet Tanganga Sheffield United Aktiv 131 / 129 40% 1 24.01.2027 -
Imrân Louza Watford Aktiv 135 / 129 40% 1 22.01.2027 -
Tariq Lamptey Queens Park Rangers Aktiv 136 / 136 40% 1 22.01.2027 -
Tyler Adams Bournemouth Aktiv 152 / 152 40% 1 22.01.2027 -
Siyanda Msani University of Pretoria Aktiv 100 / 102 40% 1 21.01.2027 -
Terry Devlin Portsmouth Aktiv 120 / 117 40% 1 21.01.2027 -
Thabiso Monyane Kaizer Chiefs Aktiv 104 / 102 40% 1 18.01.2027 -
Ayanda Jiyane Golden Arrows Aktiv 101 / 110 40% 1 18.01.2027 -
Christian Krasnodar Aktiv 140 / 138 40% 4 17.01.2027 -
Álex Centelles Levski Aktiv 133 / 120 40% 2 17.01.2027 -
Marwan Ateya Al Ahly Aktiv 137 / 129 40% 1 17.01.2027 -
Rubens Dinamo Moscow Aktiv 124 / 127 40% 2 16.01.2027 -
Franco Romero Toluca Aktiv 130 / 127 40% 1 16.01.2027 -
Khuliso Mudau Mamelodi Sundowns Aktiv 125 / 131 40% 4 15.01.2027 -
Victor Parada Spartak Moscow Aktiv 132 / 117 40% 2 15.01.2027 -
Rúben Neves Al-Hilal Aktiv 149 / 148 40% 1 15.01.2027 -
Erick Jali Black Aces Aktiv 110 / 109 40% 1 14.01.2027 -
Goodman Mosele Chippa United Aktiv 109 / 111 40% 1 14.01.2027 -
Lucas Da Cunha Como Aktiv 143 / 142 40% 1 10.01.2027 -
Tristan Crama Millwall Aktiv 128 / 127 40% 1 09.01.2027 -
Malebogo Modise Polokwane City Aktiv 101 / 101 40% 2 08.01.2027 -
Joe Knight Stevenage Aktiv 97 / 108 40% 1 07.01.2027 -
Vinicius Tobias Shakhtar Aktiv 129 / 138 40% 1 05.01.2027 -
Josh King Chelsea Aktiv 136 / 141 40% 1 04.01.2027 -
Brooklyn Poggenpoel Maritzburg United Aktiv 115 / 109 40% 1 04.01.2027 -
Gift Ngcobo Ajax Cape Town Aktiv 130 / 132 40% 3 02.01.2027 -
Aubrey Modiba Mamelodi Sundowns Aktiv 121 / 127 40% 3 02.01.2027 -
Andile Manyama SuperSport United Aktiv 125 / 131 40% 1 02.01.2027 -
Nicolò Rovella Lazio Aktiv 155 / 154 40% 1 30.12.2026 -
Nuno Tavares Lazio Aktiv 142 / 147 40% 1 30.12.2026 -
Yves Bissouma Tottenham Aktiv 145 / 142 40% 3 24.12.2026 -
Mohamed Simakan Al-Nassr Aktiv 147 / 134 40% 1 22.12.2026 -
Nino Zenit Aktiv 148 / 141 40% 1 22.12.2026 -
Bradley Tau SuperSport United Aktiv 132 / 124 40% 7 20.12.2026 -
Christos Mouzakitis Hull City Aktiv 133 / 132 40% 1 20.12.2026 -
Valentín Barco Chelsea Aktiv 137 / 146 40% 4 17.12.2026 -
Yacine Adli Al-Shabab Aktiv 136 / 141 40% 1 12.12.2026 -
Luke Thomas Leicester City Aktiv 123 / 129 40% 2 08.12.2026 -
Ilja Vakhania Krasnodar Aktiv 112 / 121 40% 1 08.12.2026 -
Jaïro Riedewald Sheffield United Aktiv 119 / 117 40% 1 08.12.2026 -
Nobel Mendy Hull City Aktiv 134 / 132 40% 5 05.12.2026 -
Mandla Erasmus SuperSport United Aktiv 120 / 116 40% 5 05.12.2026 -
João Gomes Aston Villa Aktiv 141 / 144 40% 5 05.12.2026 -
Gustavo Mantuan Zenit Aktiv 137 / 129 40% 2 03.12.2026 -
Caolan Boyd-Munce Wycombe Wanderers Aktiv 122 / 118 40% 3 01.12.2026 -
Alexandr Chernikov Krasnodar Aktiv 132 / 124 40% 1 30.11.2026 -
Josh Eccles Coventry City Aktiv 120 / 114 40% 1 29.11.2026 -
Nazareno Colombo Racing Club Aktiv 122 / 130 40% 1 25.11.2026 -
Leandro Lozano Boca Juniors Aktiv 119 / 123 40% 1 24.11.2026 -
Jack Currie Oxford United Aktiv 118 / 118 40% 1 24.11.2026 -
Max Conway Bolton Wanderers Aktiv 113 / 119 40% 1 24.11.2026 -
Maxim De Cuyper Brighton Aktiv 139 / 138 40% 4 23.11.2026 -
Rodrigo Bentancur Tottenham Aktiv 149 / 145 40% 3 23.11.2026 -
Nico Elvedi Leeds United Aktiv 137 / 137 40% 2 17.11.2026 -
Sergio Reguilón Inter Miami CF Aktiv 140 / 136 40% 2 17.11.2026 -
Femi Seriki Sheffield United Aktiv 130 / 124 40% 1 15.11.2026 -
Israel Reyes CSKA Moscow Aktiv 136 / 137 40% 1 13.11.2026 Mehr Infos nötig
Dan Ballard Sunderland Aktiv 136 / 138 40% 1 09.11.2026 -
Conrad Wallem Austria Wien Aktiv 127 / 130 40% 3 06.11.2026 -
Odel Offiah Preston Aktiv 117 / 119 40% 1 03.11.2026 -
Obinna Nwobodo FC Cincinnati Aktiv 125 / 131 40% 1 30.09.2026 -
Joel Latibeaudiere Coventry City Aktiv 123 / 122 40% 1 27.09.2026 -
Andrés Herrera Columbus Crew Aktiv 117 / 117 40% 2 26.09.2026 -
Jake Davis Sporting Kansas City Aktiv 115 / 120 40% 1 26.09.2026 -
Facundo Mura Inter Miami CF Aktiv 127 / 120 40% 2 23.09.2026 -
Juan Manuel Sanabria Real Salt Lake Aktiv 129 / 125 40% 1 23.09.2026 -
Marcel Hartel St. Louis CITY SC Aktiv 133 / 128 40% 1 20.09.2026 -
Lasse Berg Johnsen Sporting Kansas City Aktiv 121 / 128 40% 1 17.09.2026 -
Thalente Mbatha Orlando Pirates Aktiv 114 / 121 40% 1 15.09.2026 -
Miles Robinson FC Cincinnati Aktiv 138 / 133 40% 1 12.09.2026 -
Costinha Brighton Aktiv 130 / 123 40% 1 12.09.2026 -
Anton Salétros Chicago Fire Aktiv 132 / 124 40% 1 09.09.2026 -
Eduard Löwen San Jose Earthquakes Aktiv 128 / 127 40% 1 08.09.2026 -
Fabián Paris Saint-Germain Aktiv 159 / 165 40% 1 07.09.2026 -
Hosei Kijima DC United Aktiv 100 / 109 79% 1 03.08.2026 Befürworten
Frank Onyeka Coventry City Aktiv 135 / 135 40% 1 01.08.2026 -
Tim Iroegbunam Hull City Aktiv 136 / 139 40% 1 01.08.2026 -
Youri Tielemans Manchester United Aktiv 155 / 160 40% 1 01.08.2026 -